createdAt,value
2022-09-11T00:00:10.089Z,63
2022-09-11T00:15:02.966Z,63
2022-09-11T00:30:07.112Z,63
2022-09-11T00:45:04.459Z,63
2022-09-11T01:00:06.515Z,63
2022-09-11T01:15:03.915Z,63
2022-09-11T01:30:08.338Z,63
2022-09-11T01:45:02.317Z,63
2022-09-11T02:00:06.427Z,63
2022-09-11T02:15:04.009Z,63
2022-09-11T02:30:04.414Z,63
2022-09-11T02:45:04.132Z,64
2022-09-11T03:00:07.990Z,64
2022-09-11T03:15:04.560Z,64
2022-09-11T03:30:06.885Z,64
2022-09-11T03:45:02.784Z,64
2022-09-11T04:00:07.156Z,64
2022-09-11T04:15:03.628Z,64
2022-09-11T04:30:06.760Z,64
2022-09-11T04:45:03.446Z,64
2022-09-11T05:00:06.139Z,64
2022-09-11T05:15:05.518Z,64
2022-09-11T05:30:07.983Z,64
2022-09-11T05:45:02.675Z,64
2022-09-11T06:00:08.934Z,64
2022-09-11T06:15:03.387Z,64
2022-09-11T06:30:07.414Z,64
2022-09-11T06:45:03.564Z,64
2022-09-11T07:00:11.334Z,64
2022-09-11T07:15:02.781Z,64
2022-09-11T07:30:04.335Z,64
2022-09-11T07:45:04.331Z,64
2022-09-11T08:00:10.417Z,65
2022-09-11T08:15:04.392Z,65
2022-09-11T08:30:08.443Z,65
2022-09-11T08:45:04.063Z,65
2022-09-11T09:00:10.514Z,65
2022-09-11T09:15:05.119Z,66
2022-09-11T09:30:04.890Z,66
2022-09-11T09:45:03.271Z,66
2022-09-11T10:00:09.607Z,66
2022-09-11T10:15:02.976Z,66
2022-09-11T10:30:09.026Z,66
2022-09-11T10:45:02.561Z,66
2022-09-11T11:00:06.455Z,66
2022-09-11T11:15:03.447Z,67
2022-09-11T11:30:08.295Z,67
2022-09-11T11:45:05.052Z,67
2022-09-11T12:00:11.145Z,68
2022-09-11T12:15:06.590Z,68
2022-09-11T12:30:09.512Z,68
2022-09-11T12:45:03.409Z,68
2022-09-11T13:00:09.170Z,68
2022-09-11T13:15:02.780Z,68
2022-09-11T13:30:07.189Z,68
2022-09-11T13:45:03.895Z,68
2022-09-11T14:00:06.933Z,68
2022-09-11T14:15:02.705Z,67
2022-09-11T14:30:04.250Z,68
2022-09-11T14:45:04.191Z,68
2022-09-11T15:00:07.839Z,68
2022-09-11T15:15:04.913Z,68
2022-09-11T15:30:05.698Z,68
2022-09-11T15:45:04.046Z,68
2022-09-11T16:00:09.747Z,68
2022-09-11T16:15:04.474Z,68
2022-09-11T16:30:44.389Z,68
2022-09-11T16:45:03.348Z,68
2022-09-11T17:00:11.102Z,68
2022-09-11T17:15:06.554Z,68
2022-09-11T17:30:07.199Z,68
2022-09-11T17:45:04.359Z,68
2022-09-11T18:00:12.442Z,68
2022-09-11T18:15:06.713Z,68
2022-09-11T18:30:10.779Z,68
2022-09-11T18:45:05.800Z,68
2022-09-11T19:00:07.132Z,68
2022-09-11T19:15:03.856Z,67
2022-09-11T19:30:06.186Z,67
2022-09-11T19:45:03.686Z,67
2022-09-11T20:00:07.242Z,66
2022-09-11T20:15:03.474Z,66
2022-09-11T20:30:05.675Z,66
2022-09-11T20:45:02.616Z,65
2022-09-11T21:00:05.499Z,65
2022-09-11T21:15:05.002Z,64
2022-09-11T21:30:05.172Z,64
2022-09-11T21:45:03.354Z,64
2022-09-11T22:00:10.744Z,63
2022-09-11T22:15:02.625Z,63
2022-09-11T22:30:07.249Z,63
2022-09-11T22:45:02.131Z,62
2022-09-11T23:00:08.071Z,62
2022-09-11T23:15:04.995Z,61
2022-09-11T23:30:04.321Z,61
2022-09-11T23:45:05.259Z,61
